createdAt,value
2023-05-13T00:00:54.001Z,10.09
2023-05-13T00:02:55.534Z,10.10
2023-05-13T00:04:57.133Z,10.19
2023-05-13T00:06:58.570Z,10.27
2023-05-13T00:09:00.261Z,10.29
2023-05-13T00:11:01.883Z,10.33
2023-05-13T00:13:03.483Z,10.44
2023-05-13T00:15:05.239Z,10.52
2023-05-13T00:17:06.733Z,10.54
2023-05-13T00:19:08.300Z,10.39
2023-05-13T00:21:10.179Z,10.40
2023-05-13T00:23:11.761Z,10.41
2023-05-13T00:25:13.223Z,10.33
2023-05-13T00:27:14.679Z,10.36
2023-05-13T00:29:16.101Z,10.42
2023-05-13T00:31:17.968Z,10.50
2023-05-13T00:33:19.470Z,10.60
2023-05-13T00:35:20.956Z,10.66
2023-05-13T00:37:22.473Z,10.70
2023-05-13T00:39:24.718Z,10.65
2023-05-13T00:41:26.182Z,10.61
2023-05-13T00:43:27.645Z,10.41
2023-05-13T00:45:29.217Z,10.29
2023-05-13T00:47:30.750Z,10.28
2023-05-13T00:49:35.343Z,10.23
2023-05-13T00:51:36.790Z,10.32
2023-05-13T00:53:38.222Z,10.41
2023-05-13T00:55:43.405Z,10.50
2023-05-13T00:57:44.938Z,10.58
2023-05-13T00:59:46.433Z,10.62
2023-05-13T01:02:08.211Z,10.68
2023-05-13T01:04:13.628Z,10.70
2023-05-13T01:06:28.540Z,10.74
2023-05-13T01:08:39.233Z,10.75
2023-05-13T01:10:46.574Z,10.76
2023-05-13T01:12:48.174Z,10.78
2023-05-13T01:14:52.438Z,10.77
2023-05-13T01:16:59.411Z,10.78
2023-05-13T01:19:02.938Z,10.79
2023-05-13T01:21:05.000Z,10.77
2023-05-13T01:23:06.854Z,10.80
2023-05-13T01:25:08.798Z,10.85
2023-05-13T01:27:10.302Z,10.91
2023-05-13T01:29:11.919Z,10.92
2023-05-13T01:31:14.148Z,10.95
2023-05-13T01:33:15.629Z,10.97
2023-05-13T01:35:17.057Z,10.97
2023-05-13T01:37:18.864Z,10.95
2023-05-13T01:39:20.317Z,10.85
2023-05-13T01:41:22.252Z,10.84
2023-05-13T01:43:23.740Z,10.85
2023-05-13T01:45:25.267Z,10.89
2023-05-13T01:47:27.170Z,10.88
2023-05-13T01:49:28.640Z,10.87
2023-05-13T01:51:30.074Z,10.88
2023-05-13T01:53:31.822Z,10.89
2023-05-13T01:55:33.296Z,10.94
2023-05-13T01:57:34.763Z,10.98
2023-05-13T01:59:36.179Z,10.97
2023-05-13T02:01:37.731Z,10.98
2023-05-13T02:03:39.372Z,10.70
2023-05-13T02:05:40.970Z,10.60
2023-05-13T02:07:42.561Z,10.62
2023-05-13T02:09:44.053Z,10.33
2023-05-13T02:11:45.836Z,10.11
2023-05-13T02:13:48.304Z,10.03
2023-05-13T02:15:49.844Z,9.98
2023-05-13T02:17:51.553Z,10.07
2023-05-13T02:19:53.038Z,10.14
2023-05-13T02:21:54.468Z,10.13
2023-05-13T02:23:56.159Z,10.21
2023-05-13T02:25:57.617Z,10.32
2023-05-13T02:27:59.704Z,10.43
2023-05-13T02:30:01.194Z,10.51
2023-05-13T02:32:02.684Z,10.57
2023-05-13T02:34:04.185Z,10.57
2023-05-13T02:36:05.736Z,10.59
2023-05-13T02:38:09.301Z,10.64
2023-05-13T02:40:10.928Z,10.73
2023-05-13T02:42:12.374Z,10.78
2023-05-13T02:44:13.795Z,10.78
2023-05-13T02:46:15.441Z,10.66
2023-05-13T02:48:17.439Z,10.65
2023-05-13T02:50:19.176Z,10.64
2023-05-13T02:52:20.916Z,10.58
2023-05-13T02:54:22.350Z,10.58
2023-05-13T02:56:23.827Z,10.61
2023-05-13T02:58:25.409Z,10.66
2023-05-13T03:00:26.837Z,10.76
2023-05-13T03:02:28.423Z,10.81
2023-05-13T03:04:29.996Z,10.85
2023-05-13T03:06:32.202Z,10.82
2023-05-13T03:08:33.700Z,10.79
2023-05-13T03:10:35.315Z,10.80
2023-05-13T03:12:36.772Z,10.80
2023-05-13T03:14:38.271Z,10.68
2023-05-13T03:16:39.866Z,10.25
2023-05-13T03:18:41.375Z,10.07
2023-05-13T03:20:42.881Z,9.57
2023-05-13T03:22:44.397Z,9.26
2023-05-13T03:24:46.008Z,9.02
2023-05-13T03:26:47.464Z,9.10
2023-05-13T03:28:48.966Z,9.21
2023-05-13T03:30:51.076Z,9.29
2023-05-13T03:32:52.672Z,9.38
2023-05-13T03:34:54.208Z,9.54
2023-05-13T03:36:55.810Z,9.66
2023-05-13T03:38:57.280Z,9.68
2023-05-13T03:40:58.848Z,9.64
2023-05-13T03:43:00.422Z,9.61
2023-05-13T03:45:01.906Z,9.69
2023-05-13T03:47:03.485Z,9.78
2023-05-13T03:49:05.024Z,9.92
2023-05-13T03:51:06.669Z,10.08
2023-05-13T03:53:08.216Z,10.18
2023-05-13T03:55:09.715Z,10.27
2023-05-13T03:57:11.187Z,10.12
2023-05-13T03:59:12.608Z,10.05
2023-05-13T04:01:14.039Z,9.96
2023-05-13T04:03:19.358Z,10.06
2023-05-13T04:05:21.705Z,10.17
2023-05-13T04:07:23.219Z,10.27
2023-05-13T04:09:24.624Z,10.33
2023-05-13T04:11:26.043Z,10.45
2023-05-13T04:13:27.588Z,10.52
2023-05-13T04:15:29.214Z,10.49
2023-05-13T04:17:30.892Z,10.50
2023-05-13T04:19:32.393Z,10.60
2023-05-13T04:21:33.839Z,10.65
2023-05-13T04:23:35.591Z,10.72
2023-05-13T04:25:39.858Z,10.79
2023-05-13T04:27:41.490Z,10.62
2023-05-13T04:29:42.925Z,10.39
2023-05-13T04:31:44.768Z,9.86
2023-05-13T04:33:46.349Z,9.58
2023-05-13T04:35:47.785Z,9.38
2023-05-13T04:37:49.731Z,9.19
2023-05-13T04:39:51.282Z,9.12
2023-05-13T04:41:52.732Z,9.26
2023-05-13T04:43:54.242Z,9.04
2023-05-13T04:45:55.701Z,9.31
2023-05-13T04:47:58.480Z,9.64
2023-05-13T04:50:00.100Z,9.93
2023-05-13T04:52:02.401Z,10.20
2023-05-13T04:54:03.952Z,10.44
2023-05-13T04:56:05.682Z,10.61
2023-05-13T04:58:07.140Z,10.74
2023-05-13T05:00:09.557Z,10.86
2023-05-13T05:02:11.105Z,11.04
2023-05-13T05:04:12.828Z,11.16
2023-05-13T05:06:14.288Z,11.24
2023-05-13T05:08:16.145Z,11.35
2023-05-13T05:10:17.687Z,11.42
2023-05-13T05:12:19.139Z,11.46
2023-05-13T05:14:20.733Z,11.48
2023-05-13T05:16:22.253Z,11.47
2023-05-13T05:18:23.812Z,11.47
2023-05-13T05:20:25.423Z,11.54
2023-05-13T05:22:27.221Z,11.63
2023-05-13T05:24:28.726Z,11.71
2023-05-13T05:26:30.234Z,11.80
2023-05-13T05:28:31.688Z,11.86
2023-05-13T05:30:39.460Z,11.88
2023-05-13T05:32:41.364Z,11.93
2023-05-13T05:34:42.835Z,11.94
2023-05-13T05:36:44.315Z,11.94
2023-05-13T05:38:45.801Z,11.97
2023-05-13T05:40:47.427Z,12.01
2023-05-13T05:42:48.936Z,11.97
2023-05-13T05:44:50.512Z,11.97
2023-05-13T05:46:52.881Z,12.05
2023-05-13T05:48:54.375Z,12.08
2023-05-13T05:50:56.596Z,12.09
2023-05-13T05:52:59.325Z,12.09
2023-05-13T05:55:00.884Z,12.13
2023-05-13T05:57:02.322Z,12.13
2023-05-13T05:59:03.729Z,12.14
2023-05-13T06:01:05.742Z,12.13
2023-05-13T06:03:07.329Z,12.14
2023-05-13T06:05:08.978Z,12.11
2023-05-13T06:07:10.651Z,12.16
2023-05-13T06:09:12.117Z,11.99
2023-05-13T06:11:13.573Z,11.64
2023-05-13T06:13:15.129Z,11.41
2023-05-13T06:15:16.658Z,11.58
2023-05-13T06:17:18.100Z,11.74
2023-05-13T06:19:19.526Z,11.88
2023-05-13T06:21:21.040Z,12.04
2023-05-13T06:23:22.475Z,12.11
2023-05-13T06:25:24.067Z,12.20
2023-05-13T06:27:25.655Z,12.22
2023-05-13T06:29:27.245Z,12.19
2023-05-13T06:31:28.885Z,12.26
2023-05-13T06:33:30.472Z,12.39
2023-05-13T06:35:31.971Z,12.41
2023-05-13T06:37:33.426Z,12.51
2023-05-13T06:39:34.926Z,12.58
2023-05-13T06:41:36.363Z,12.47
2023-05-13T06:43:38.833Z,12.47
2023-05-13T06:45:40.370Z,12.54
2023-05-13T06:47:41.879Z,12.65
2023-05-13T06:49:43.434Z,12.42
2023-05-13T06:51:44.909Z,12.45
2023-05-13T06:53:46.404Z,12.37
2023-05-13T06:55:48.005Z,12.43
2023-05-13T06:57:49.523Z,12.60
2023-05-13T06:59:50.964Z,12.86
2023-05-13T07:01:52.420Z,12.90
2023-05-13T07:03:53.911Z,13.01
2023-05-13T07:05:55.663Z,13.18
2023-05-13T07:07:57.116Z,13.27
2023-05-13T07:09:58.729Z,13.39
2023-05-13T07:12:00.219Z,13.58
2023-05-13T07:14:01.681Z,13.67
2023-05-13T07:16:03.275Z,13.32
2023-05-13T07:18:04.811Z,13.14
2023-05-13T07:20:06.727Z,12.98
2023-05-13T07:22:08.244Z,12.97
2023-05-13T07:24:09.692Z,12.62
2023-05-13T07:26:11.178Z,12.22
2023-05-13T07:28:12.686Z,12.22
2023-05-13T07:30:14.287Z,12.20
2023-05-13T07:32:15.781Z,12.52
2023-05-13T07:34:17.334Z,12.56
2023-05-13T07:36:18.776Z,12.78
2023-05-13T07:38:20.671Z,12.96
2023-05-13T07:40:22.363Z,13.02
2023-05-13T07:42:24.657Z,12.76
2023-05-13T07:44:26.554Z,12.68
2023-05-13T07:46:28.079Z,12.81
2023-05-13T07:48:29.576Z,13.15
2023-05-13T07:50:31.318Z,13.50
2023-05-13T07:52:32.875Z,13.92
2023-05-13T07:54:34.311Z,14.29
2023-05-13T07:56:35.976Z,14.63
2023-05-13T07:58:37.702Z,14.91
2023-05-13T08:00:39.218Z,15.10
2023-05-13T08:02:41.614Z,15.32
2023-05-13T08:04:43.622Z,15.44
2023-05-13T08:06:45.201Z,15.55
2023-05-13T08:08:46.661Z,15.39
2023-05-13T08:10:48.370Z,15.45
2023-05-13T08:12:53.641Z,15.59
2023-05-13T08:14:55.119Z,15.76
2023-05-13T08:16:56.722Z,15.89
2023-05-13T08:18:58.241Z,15.99
2023-05-13T08:20:59.837Z,15.87
2023-05-13T08:23:02.151Z,15.80
2023-05-13T08:25:04.120Z,15.77
2023-05-13T08:27:05.815Z,15.84
2023-05-13T08:29:07.694Z,15.91
2023-05-13T08:31:11.010Z,16.01
2023-05-13T08:33:12.495Z,15.81
2023-05-13T08:35:13.981Z,15.66
2023-05-13T08:37:15.469Z,15.65
2023-05-13T08:39:16.973Z,15.79
2023-05-13T08:41:21.179Z,15.89
2023-05-13T08:43:23.884Z,16.12
2023-05-13T08:45:25.473Z,16.26
2023-05-13T08:47:27.759Z,16.40
2023-05-13T08:49:29.690Z,16.57
2023-05-13T08:51:32.097Z,16.46
2023-05-13T08:53:34.551Z,16.54
2023-05-13T08:55:36.003Z,16.34
2023-05-13T08:57:37.422Z,16.24
2023-05-13T08:59:38.856Z,16.26
2023-05-13T09:01:40.313Z,16.10
2023-05-13T09:03:44.390Z,16.28
2023-05-13T09:05:45.911Z,16.03
2023-05-13T09:07:47.348Z,16.05
2023-05-13T09:09:48.830Z,16.23
2023-05-13T09:11:50.629Z,16.51
2023-05-13T09:13:58.779Z,16.73
2023-05-13T09:16:00.422Z,16.93
2023-05-13T09:18:03.705Z,17.08
2023-05-13T09:20:09.169Z,17.23
2023-05-13T09:22:17.032Z,17.32
2023-05-13T09:24:19.075Z,17.24
2023-05-13T09:26:28.066Z,16.92
2023-05-13T09:28:29.694Z,16.47
2023-05-13T09:30:43.762Z,16.18
2023-05-13T09:32:46.486Z,16.52
2023-05-13T09:34:48.409Z,16.56
2023-05-13T09:36:55.130Z,16.69
2023-05-13T09:38:56.619Z,16.52
2023-05-13T09:40:59.470Z,16.59
2023-05-13T09:43:00.928Z,16.68
2023-05-13T09:45:05.169Z,16.88
2023-05-13T09:47:06.710Z,16.98
2023-05-13T09:49:08.198Z,16.68
2023-05-13T09:51:09.651Z,16.48
2023-05-13T09:53:12.221Z,16.54
2023-05-13T09:55:13.916Z,16.70
2023-05-13T09:57:15.820Z,16.83
2023-05-13T09:59:17.493Z,16.80
2023-05-13T10:01:19.918Z,16.64
2023-05-13T10:03:21.376Z,16.67
2023-05-13T10:05:22.830Z,16.92
2023-05-13T10:07:25.789Z,17.25
2023-05-13T10:09:27.689Z,17.52
2023-05-13T10:11:29.794Z,17.84
2023-05-13T10:13:31.283Z,18.09
2023-05-13T10:15:33.287Z,18.27
2023-05-13T10:17:34.908Z,18.31
2023-05-13T10:19:36.559Z,18.59
2023-05-13T10:21:38.077Z,18.45
2023-05-13T10:23:39.582Z,18.32
2023-05-13T10:25:41.038Z,18.39
2023-05-13T10:27:43.332Z,18.13
2023-05-13T10:29:44.778Z,17.86
2023-05-13T10:31:46.593Z,17.95
2023-05-13T10:33:48.110Z,18.09
2023-05-13T10:36:09.910Z,18.01
2023-05-13T10:38:17.695Z,18.31
2023-05-13T10:40:28.345Z,18.65
2023-05-13T10:42:39.232Z,18.94
2023-05-13T10:44:40.992Z,19.14
2023-05-13T10:46:43.046Z,19.12
2023-05-13T10:48:48.585Z,19.18
2023-05-13T10:50:51.441Z,19.28
2023-05-13T10:52:57.264Z,19.20
2023-05-13T10:55:02.593Z,19.25
2023-05-13T10:57:04.273Z,19.32
2023-05-13T10:59:05.837Z,19.40
2023-05-13T11:01:21.420Z,19.54
2023-05-13T11:03:29.306Z,19.71
2023-05-13T11:05:31.152Z,19.87
2023-05-13T11:07:32.650Z,19.98
2023-05-13T11:09:37.766Z,20.06
2023-05-13T11:11:39.492Z,20.04
2023-05-13T11:13:41.129Z,20.00
2023-05-13T11:15:46.330Z,19.75
2023-05-13T11:17:48.134Z,19.48
2023-05-13T11:19:50.612Z,19.26
2023-05-13T11:21:53.223Z,19.30
2023-05-13T11:24:12.610Z,19.47
2023-05-13T11:26:17.049Z,19.49
2023-05-13T11:28:18.631Z,19.49
2023-05-13T11:30:22.897Z,19.28
2023-05-13T11:32:43.400Z,19.20
2023-05-13T11:34:51.194Z,19.23
2023-05-13T11:37:12.975Z,19.32
2023-05-13T11:39:16.130Z,19.47
2023-05-13T11:41:17.557Z,19.32
2023-05-13T11:43:22.093Z,19.27
2023-05-13T11:45:24.583Z,19.21
2023-05-13T11:47:27.668Z,19.35
2023-05-13T11:49:44.917Z,19.42
2023-05-13T11:51:46.416Z,19.67
2023-05-13T11:53:47.823Z,19.76
2023-05-13T11:55:49.376Z,19.79
2023-05-13T11:57:50.925Z,19.81
2023-05-13T11:59:52.424Z,19.89
2023-05-13T12:02:01.236Z,19.93
2023-05-13T12:04:02.967Z,20.12
2023-05-13T12:06:05.741Z,20.10
2023-05-13T12:08:08.137Z,19.85
2023-05-13T12:10:09.765Z,19.07
2023-05-13T12:12:11.246Z,19.12
2023-05-13T12:14:12.684Z,19.18
2023-05-13T12:16:14.147Z,19.47
2023-05-13T12:18:15.679Z,19.62
2023-05-13T12:20:18.023Z,19.71
2023-05-13T12:22:21.838Z,19.93
2023-05-13T12:24:23.400Z,20.22
2023-05-13T12:26:25.449Z,20.49
2023-05-13T12:28:27.055Z,20.67
2023-05-13T12:30:33.932Z,20.79
2023-05-13T12:32:35.412Z,20.99
2023-05-13T12:34:36.996Z,21.16
2023-05-13T12:36:38.781Z,21.22
2023-05-13T12:38:40.323Z,21.32
2023-05-13T12:40:41.950Z,21.34
2023-05-13T12:42:46.206Z,21.33
2023-05-13T12:44:47.659Z,21.46
2023-05-13T12:46:52.223Z,21.32
2023-05-13T12:48:57.174Z,21.11
2023-05-13T12:51:00.114Z,21.01
2023-05-13T12:53:03.696Z,20.98
2023-05-13T12:55:05.384Z,21.07
2023-05-13T12:57:10.111Z,21.17
2023-05-13T12:59:13.426Z,21.18
2023-05-13T13:01:14.992Z,21.03
2023-05-13T13:03:16.785Z,20.84
2023-05-13T13:05:18.598Z,20.71
2023-05-13T13:07:20.069Z,20.54
2023-05-13T13:09:21.539Z,20.42
2023-05-13T13:11:23.238Z,20.35
2023-05-13T13:13:24.750Z,20.27
2023-05-13T13:15:26.224Z,20.22
2023-05-13T13:17:27.789Z,20.21
2023-05-13T13:19:29.319Z,20.20
2023-05-13T13:21:30.788Z,20.19
2023-05-13T13:23:32.276Z,20.13
2023-05-13T13:25:33.715Z,20.16
2023-05-13T13:27:35.366Z,20.24
2023-05-13T13:29:36.836Z,20.27
2023-05-13T13:31:38.367Z,20.26
2023-05-13T13:33:39.868Z,20.49
2023-05-13T13:35:42.485Z,20.70
2023-05-13T13:37:43.949Z,20.88
2023-05-13T13:39:45.481Z,21.06
2023-05-13T13:41:47.392Z,21.13
2023-05-13T13:43:48.884Z,20.92
2023-05-13T13:45:50.376Z,20.59
2023-05-13T13:47:52.105Z,20.66
2023-05-13T13:49:53.574Z,20.71
2023-05-13T13:51:56.184Z,20.58
2023-05-13T13:53:57.641Z,20.32
2023-05-13T13:55:59.071Z,20.24
2023-05-13T13:58:00.550Z,20.17
2023-05-13T14:00:01.971Z,20.24
2023-05-13T14:02:03.495Z,20.31
2023-05-13T14:04:11.721Z,20.60
2023-05-13T14:06:13.174Z,20.91
2023-05-13T14:08:14.637Z,21.17
2023-05-13T14:10:16.204Z,21.39
2023-05-13T14:12:17.678Z,21.46
2023-05-13T14:14:19.160Z,21.58
2023-05-13T14:16:20.743Z,21.68
2023-05-13T14:18:22.218Z,21.75
2023-05-13T14:20:24.932Z,21.71
2023-05-13T14:22:26.512Z,21.47
2023-05-13T14:24:28.104Z,21.30
2023-05-13T14:26:29.686Z,21.16
2023-05-13T14:28:31.172Z,21.00
2023-05-13T14:30:32.627Z,20.84
2023-05-13T14:32:34.329Z,20.72
2023-05-13T14:34:35.859Z,20.54
2023-05-13T14:36:37.426Z,20.44
2023-05-13T14:38:39.897Z,20.43
2023-05-13T14:40:41.413Z,20.46
2023-05-13T14:42:42.846Z,20.45
2023-05-13T14:44:44.307Z,20.42
2023-05-13T14:46:45.908Z,20.41
2023-05-13T14:48:47.417Z,20.38
2023-05-13T14:50:48.914Z,20.35
2023-05-13T14:52:50.447Z,20.35
2023-05-13T14:54:52.205Z,20.27
2023-05-13T14:56:53.634Z,20.25
2023-05-13T14:58:55.180Z,20.22
2023-05-13T15:00:56.687Z,20.17
2023-05-13T15:02:58.439Z,20.11
2023-05-13T15:04:59.950Z,20.02
2023-05-13T15:07:01.995Z,20.00
2023-05-13T15:09:03.776Z,19.96
2023-05-13T15:11:05.456Z,19.95
2023-05-13T15:13:08.033Z,19.89
2023-05-13T15:15:09.862Z,19.83
2023-05-13T15:17:12.126Z,19.81
2023-05-13T15:19:13.830Z,19.80
2023-05-13T15:21:15.589Z,19.82
2023-05-13T15:23:17.055Z,19.84
2023-05-13T15:25:18.548Z,19.83
2023-05-13T15:27:20.078Z,19.80
2023-05-13T15:29:21.508Z,19.82
2023-05-13T15:31:23.094Z,19.81
2023-05-13T15:33:26.680Z,19.77
2023-05-13T15:35:28.125Z,19.79
2023-05-13T15:37:29.622Z,19.77
2023-05-13T15:39:31.088Z,19.77
2023-05-13T15:41:32.674Z,19.77
2023-05-13T15:43:34.517Z,19.74
2023-05-13T15:45:36.093Z,19.74
2023-05-13T15:47:37.745Z,19.74
2023-05-13T15:49:39.685Z,19.74
2023-05-13T15:51:41.106Z,19.71
2023-05-13T15:53:42.694Z,19.58
2023-05-13T15:55:44.174Z,19.48
2023-05-13T15:57:46.227Z,19.34
2023-05-13T15:59:48.787Z,19.33
2023-05-13T16:01:50.332Z,19.27
2023-05-13T16:03:51.866Z,19.28
2023-05-13T16:05:53.536Z,19.28
2023-05-13T16:07:56.106Z,19.26
2023-05-13T16:09:57.632Z,19.28
2023-05-13T16:11:59.052Z,19.26
2023-05-13T16:14:00.733Z,19.22
2023-05-13T16:16:02.364Z,19.18
2023-05-13T16:18:04.015Z,19.14
2023-05-13T16:20:05.925Z,19.09
2023-05-13T16:22:26.612Z,19.05
2023-05-13T16:24:28.097Z,18.92
2023-05-13T16:26:29.577Z,18.85
2023-05-13T16:28:31.144Z,18.82
2023-05-13T16:30:32.751Z,18.80
2023-05-13T16:32:35.096Z,18.76
2023-05-13T16:34:36.697Z,18.65
2023-05-13T16:36:38.111Z,18.51
2023-05-13T16:38:41.554Z,18.36
2023-05-13T16:40:43.566Z,18.39
2023-05-13T16:42:46.359Z,18.45
2023-05-13T16:44:47.830Z,18.46
2023-05-13T16:46:49.337Z,18.46
2023-05-13T16:48:50.951Z,18.46
2023-05-13T16:50:52.463Z,18.46
2023-05-13T16:52:54.619Z,18.46
2023-05-13T16:54:58.370Z,18.45
2023-05-13T16:57:00.545Z,18.39
2023-05-13T16:59:02.057Z,18.35
2023-05-13T17:01:03.569Z,18.31
2023-05-13T17:03:05.109Z,18.27
2023-05-13T17:05:06.670Z,18.23
2023-05-13T17:07:09.814Z,18.22
2023-05-13T17:09:11.502Z,18.17
2023-05-13T17:11:16.678Z,18.14
2023-05-13T17:13:19.726Z,18.11
2023-05-13T17:15:21.437Z,18.10
2023-05-13T17:17:22.957Z,18.08
2023-05-13T17:19:24.437Z,18.05
2023-05-13T17:21:26.180Z,17.98
2023-05-13T17:23:27.659Z,17.95
2023-05-13T17:25:29.079Z,17.92
2023-05-13T17:27:30.605Z,17.90
2023-05-13T17:29:32.053Z,17.85
2023-05-13T17:31:33.973Z,17.79
2023-05-13T17:33:35.633Z,17.71
2023-05-13T17:35:37.196Z,17.66
2023-05-13T17:37:38.638Z,17.63
2023-05-13T17:39:40.102Z,17.55
2023-05-13T17:41:41.550Z,17.49
2023-05-13T17:43:43.015Z,17.39
2023-05-13T17:45:47.073Z,17.30
2023-05-13T17:47:48.681Z,17.27
2023-05-13T17:49:50.236Z,17.28
2023-05-13T17:51:51.720Z,17.30
2023-05-13T17:53:53.192Z,17.33
2023-05-13T17:55:54.726Z,17.31
2023-05-13T17:57:56.630Z,17.29
2023-05-13T17:59:58.602Z,17.27
2023-05-13T18:02:00.145Z,17.24
2023-05-13T18:04:01.729Z,17.21
2023-05-13T18:06:03.344Z,17.18
2023-05-13T18:08:04.956Z,17.04
2023-05-13T18:10:06.792Z,17.06
2023-05-13T18:12:08.416Z,17.05
2023-05-13T18:14:09.892Z,17.07
2023-05-13T18:16:12.271Z,17.06
2023-05-13T18:18:13.812Z,17.06
2023-05-13T18:20:15.269Z,17.05
2023-05-13T18:22:16.774Z,16.97
2023-05-13T18:24:18.227Z,16.92
2023-05-13T18:26:19.703Z,16.85
2023-05-13T18:28:21.164Z,16.85
2023-05-13T18:30:22.902Z,16.84
2023-05-13T18:32:24.661Z,16.79
2023-05-13T18:34:26.368Z,16.71
2023-05-13T18:36:27.794Z,16.63
2023-05-13T18:38:29.224Z,16.55
2023-05-13T18:40:30.767Z,16.47
2023-05-13T18:42:32.192Z,16.39
2023-05-13T18:44:33.809Z,16.36
2023-05-13T18:46:35.713Z,16.42
2023-05-13T18:48:37.271Z,16.37
2023-05-13T18:50:38.705Z,16.35
2023-05-13T18:52:40.679Z,16.38
2023-05-13T18:54:42.850Z,16.33
2023-05-13T18:56:44.326Z,16.34
2023-05-13T18:58:46.769Z,16.23
2023-05-13T19:00:48.249Z,16.11
2023-05-13T19:02:49.952Z,16.09
2023-05-13T19:04:51.554Z,16.07
2023-05-13T19:06:52.973Z,16.06
2023-05-13T19:08:54.430Z,16.04
2023-05-13T19:10:56.628Z,16.01
2023-05-13T19:12:58.123Z,15.97
2023-05-13T19:14:59.634Z,15.91
2023-05-13T19:17:01.366Z,15.86
2023-05-13T19:19:03.016Z,15.83
2023-05-13T19:21:04.609Z,15.77
2023-05-13T19:23:06.230Z,15.79
2023-05-13T19:25:07.881Z,15.80
2023-05-13T19:27:09.324Z,15.80
2023-05-13T19:29:10.795Z,15.82
2023-05-13T19:31:12.306Z,15.86
2023-05-13T19:33:13.934Z,15.82
2023-05-13T19:35:16.250Z,15.80
2023-05-13T19:37:18.126Z,15.74
2023-05-13T19:39:19.607Z,15.73
2023-05-13T19:41:21.035Z,15.71
2023-05-13T19:43:24.096Z,15.67
2023-05-13T19:45:25.919Z,15.69
2023-05-13T19:47:27.491Z,15.67
2023-05-13T19:49:29.062Z,15.63
2023-05-13T19:51:31.095Z,15.62
2023-05-13T19:53:32.798Z,15.59
2023-05-13T19:55:34.958Z,15.59
2023-05-13T19:57:37.170Z,15.59
2023-05-13T19:59:41.657Z,15.65
2023-05-13T20:01:43.254Z,15.66
2023-05-13T20:03:44.867Z,15.56
2023-05-13T20:05:48.253Z,15.53
2023-05-13T20:07:49.701Z,15.48
2023-05-13T20:09:51.319Z,15.38
2023-05-13T20:11:53.011Z,15.35
2023-05-13T20:13:54.510Z,15.36
2023-05-13T20:15:55.938Z,15.33
2023-05-13T20:17:57.533Z,15.29
2023-05-13T20:19:59.108Z,15.25
2023-05-13T20:22:00.678Z,15.32
2023-05-13T20:24:02.227Z,15.31
2023-05-13T20:26:03.668Z,15.38
2023-05-13T20:28:05.175Z,15.33
2023-05-13T20:30:07.614Z,15.38
2023-05-13T20:32:09.178Z,15.40
2023-05-13T20:34:10.966Z,15.41
2023-05-13T20:36:12.481Z,15.37
2023-05-13T20:38:13.902Z,15.32
2023-05-13T20:40:15.328Z,15.39
2023-05-13T20:42:17.017Z,15.36
2023-05-13T20:44:18.477Z,15.39
2023-05-13T20:46:19.969Z,15.38
2023-05-13T20:48:21.531Z,15.40
2023-05-13T20:50:23.432Z,15.36
2023-05-13T20:52:26.513Z,15.33
2023-05-13T20:54:27.950Z,15.33
2023-05-13T20:56:29.378Z,15.38
2023-05-13T20:58:30.887Z,15.34
2023-05-13T21:00:32.436Z,15.36
2023-05-13T21:02:33.955Z,15.41
2023-05-13T21:04:35.467Z,15.37
2023-05-13T21:06:36.985Z,15.40
2023-05-13T21:08:40.139Z,15.43
2023-05-13T21:10:41.689Z,15.35
2023-05-13T21:12:47.737Z,15.33
2023-05-13T21:14:49.385Z,15.36
2023-05-13T21:16:51.009Z,15.37
2023-05-13T21:18:52.538Z,15.38
2023-05-13T21:20:54.072Z,15.42
2023-05-13T21:22:55.513Z,15.46
2023-05-13T21:24:57.003Z,15.45
2023-05-13T21:26:58.479Z,15.48
2023-05-13T21:29:00.006Z,15.49
2023-05-13T21:31:01.486Z,15.46
2023-05-13T21:33:03.218Z,15.43
2023-05-13T21:35:04.932Z,15.34
2023-05-13T21:37:06.392Z,15.32
2023-05-13T21:39:09.521Z,15.28
2023-05-13T21:41:10.958Z,15.25
2023-05-13T21:43:12.426Z,15.20
2023-05-13T21:45:15.164Z,15.21
2023-05-13T21:47:16.687Z,15.11
2023-05-13T21:49:18.232Z,15.14
2023-05-13T21:51:19.678Z,15.05
2023-05-13T21:53:22.487Z,15.10
2023-05-13T21:55:24.034Z,15.09
2023-05-13T21:57:25.707Z,15.11
2023-05-13T21:59:27.336Z,15.12
2023-05-13T22:01:28.913Z,15.14
2023-05-13T22:03:30.482Z,15.11
2023-05-13T22:05:31.938Z,15.04
2023-05-13T22:07:33.386Z,15.05
2023-05-13T22:09:35.055Z,15.03
2023-05-13T22:11:36.575Z,15.06
2023-05-13T22:13:38.475Z,15.05
2023-05-13T22:15:39.979Z,15.08
2023-05-13T22:17:41.732Z,15.10
2023-05-13T22:19:43.346Z,15.09
2023-05-13T22:21:44.789Z,15.05
2023-05-13T22:23:46.479Z,15.07
2023-05-13T22:25:48.383Z,15.11
2023-05-13T22:27:50.858Z,15.12
2023-05-13T22:29:52.319Z,15.11
2023-05-13T22:31:53.803Z,15.05
2023-05-13T22:33:55.344Z,15.07
2023-05-13T22:35:56.846Z,15.02
2023-05-13T22:37:58.373Z,15.03
2023-05-13T22:39:59.787Z,15.06
2023-05-13T22:42:01.274Z,15.11
2023-05-13T22:44:02.730Z,15.08
2023-05-13T22:46:04.281Z,15.06
2023-05-13T22:48:05.924Z,15.08
2023-05-13T22:50:07.597Z,15.06
2023-05-13T22:52:09.077Z,15.01
2023-05-13T22:54:10.596Z,14.99
2023-05-13T22:56:12.123Z,14.98
2023-05-13T22:58:13.614Z,14.90
2023-05-13T23:00:15.343Z,14.87
2023-05-13T23:02:16.778Z,14.87
2023-05-13T23:04:18.246Z,14.82
2023-05-13T23:06:19.707Z,14.78
2023-05-13T23:08:21.174Z,14.77
2023-05-13T23:10:22.850Z,14.73
2023-05-13T23:12:24.517Z,14.73
2023-05-13T23:14:27.662Z,14.72
2023-05-13T23:16:29.191Z,14.76
2023-05-13T23:18:30.878Z,14.79
2023-05-13T23:20:32.353Z,14.84
2023-05-13T23:22:33.895Z,14.82
2023-05-13T23:24:35.405Z,14.69
2023-05-13T23:26:36.866Z,14.74
2023-05-13T23:28:38.352Z,14.73
2023-05-13T23:30:40.035Z,14.73
2023-05-13T23:32:41.517Z,14.74
2023-05-13T23:34:43.221Z,14.67
2023-05-13T23:36:44.701Z,14.69
2023-05-13T23:38:46.231Z,14.62
2023-05-13T23:40:47.689Z,14.65
2023-05-13T23:42:49.141Z,14.62
2023-05-13T23:44:50.630Z,14.62
2023-05-13T23:46:52.102Z,14.65
2023-05-13T23:48:53.572Z,14.69
2023-05-13T23:50:55.033Z,14.69
2023-05-13T23:52:56.543Z,14.70
2023-05-13T23:54:58.008Z,14.74
2023-05-13T23:56:59.443Z,14.72
2023-05-13T23:59:00.967Z,14.73
